Time;durP1;ratioP1;P1;durP2;ratioP2;P2;SDS_P1;SDS_P2;PMS_P1;PMS_P2;Temp;Humidity;BMP_temperature;BMP_pressure;BME280_temperature;BME280_humidity;BME280_pressure;Samples;Min_cycle;Max_cycle;Signal;HPM_P1;HPM_P2
2021/10/23 00:00:45;;;;;;;8.20;1.88;;;8.70;3.90;;;;;;5061727;28;20048;-71
2021/10/23 00:03:16;;;;;;;7.55;2.58;;;8.70;4.00;;;;;;5066844;28;20407;-70
2021/10/23 00:05:46;;;;;;;6.63;2.03;;;8.70;4.00;;;;;;5060827;28;20488;-70
2021/10/23 00:08:15;;;;;;;9.90;2.10;;;8.60;4.80;;;;;;5064200;28;20095;-70
2021/10/23 00:10:44;;;;;;;7.85;1.90;;;8.60;5.70;;;;;;5064032;28;20052;-70
2021/10/23 00:13:12;;;;;;;6.35;2.13;;;8.70;5.80;;;;;;5059510;28;20071;-69
2021/10/23 00:15:40;;;;;;;5.43;1.70;;;8.70;6.20;;;;;;5061845;28;20483;-70
2021/10/23 00:18:13;;;;;;;8.35;2.03;;;8.60;6.60;;;;;;5067285;28;20501;-69
2021/10/23 00:20:41;;;;;;;11.00;1.80;;;8.70;7.10;;;;;;5064173;28;20044;-71
2021/10/23 00:23:10;;;;;;;6.82;2.30;;;8.60;7.30;;;;;;5066350;28;20067;-70
2021/10/23 00:25:39;;;;;;;4.13;2.08;;;8.60;7.60;;;;;;5063434;28;20138;-70
2021/10/23 00:28:12;;;;;;;4.18;1.83;;;8.60;8.10;;;;;;5059795;28;20431;-70
2021/10/23 00:30:40;;;;;;;5.82;2.00;;;8.70;8.30;;;;;;5061736;28;20500;-70
2021/10/23 00:33:10;;;;;;;7.43;2.03;;;8.70;8.40;;;;;;5062299;28;20468;-70
2021/10/23 00:35:43;;;;;;;5.75;2.00;;;8.70;8.60;;;;;;5062416;28;20507;-69
2021/10/23 00:38:16;;;;;;;3.75;2.05;;;8.70;8.80;;;;;;5064388;28;20045;-69
2021/10/23 00:40:49;;;;;;;5.93;2.47;;;8.70;9.00;;;;;;5060680;28;20045;-70
2021/10/23 00:43:21;;;;;;;5.43;1.85;;;8.60;9.20;;;;;;5064136;28;20043;-69
2021/10/23 00:45:53;;;;;;;5.32;1.92;;;8.60;9.30;;;;;;5063240;28;20036;-69
2021/10/23 00:48:22;;;;;;;8.05;2.20;;;8.50;9.40;;;;;;5066179;28;20037;-70
2021/10/23 00:50:51;;;;;;;5.03;2.40;;;8.50;9.70;;;;;;5055698;28;20041;-69
2021/10/23 00:53:23;;;;;;;5.15;2.40;;;8.50;10.00;;;;;;5061902;28;20496;-69
2021/10/23 00:55:52;;;;;;;4.68;2.30;;;8.40;10.00;;;;;;5063967;28;20067;-70
2021/10/23 00:58:26;;;;;;;;;;;8.40;10.30;;;;;;5062064;28;20068;-70
2021/10/23 01:00:54;;;;;;;6.65;2.40;;;8.40;11.10;;;;;;5058596;28;20023;-70
2021/10/23 01:03:26;;;;;;;4.70;2.15;;;8.40;11.20;;;;;;5066230;28;20040;-69
2021/10/23 01:05:55;;;;;;;5.88;2.00;;;8.40;11.20;;;;;;5057961;28;20418;-70
2021/10/23 01:08:24;;;;;;;8.57;2.03;;;8.30;11.70;;;;;;5060702;28;20071;-70
2021/10/23 01:10:53;;;;;;;6.13;2.28;;;8.30;12.20;;;;;;5057652;28;20052;-70
2021/10/23 01:13:21;;;;;;;4.80;2.35;;;8.30;12.60;;;;;;5057778;28;20449;-70
2021/10/23 01:15:49;;;;;;;8.02;2.75;;;8.30;12.90;;;;;;5067056;28;20044;-70
2021/10/23 01:18:17;;;;;;;3.60;2.17;;;8.30;13.70;;;;;;5060574;28;20045;-70
2021/10/23 01:20:50;;;;;;;6.97;2.50;;;8.30;13.70;;;;;;5058083;28;20045;-70
2021/10/23 01:23:18;;;;;;;4.88;2.20;;;8.30;15.00;;;;;;5065338;28;20106;-70
2021/10/23 01:25:48;;;;;;;5.40;2.50;;;8.30;14.60;;;;;;5055225;28;20488;-70
2021/10/23 01:28:16;;;;;;;8.45;2.90;;;8.30;14.70;;;;;;5064766;28;20124;-70
2021/10/23 01:30:45;;;;;;;8.57;2.85;;;8.30;15.10;;;;;;5060026;28;20059;-70
2021/10/23 01:33:17;;;;;;;5.30;2.40;;;8.20;15.40;;;;;;5060139;28;20127;-70
2021/10/23 01:35:50;;;;;;;6.72;2.53;;;8.20;16.20;;;;;;5063247;28;20435;-70
2021/10/23 01:38:18;;;;;;;8.10;2.78;;;8.20;15.90;;;;;;5062512;28;20048;-69
2021/10/23 01:40:46;;;;;;;9.20;2.63;;;8.20;15.90;;;;;;5057001;28;20044;-70
2021/10/23 01:43:17;;;;;;;6.10;2.85;;;8.20;16.20;;;;;;5062071;28;20057;-70
2021/10/23 01:45:45;;;;;;;7.40;2.85;;;8.30;16.10;;;;;;5057396;28;20163;-70
2021/10/23 01:48:16;;;;;;;5.47;2.42;;;8.20;16.80;;;;;;5058890;28;20665;-71
2021/10/23 01:50:46;;;;;;;11.43;3.08;;;8.20;18.00;;;;;;5059464;28;20147;-69
2021/10/23 01:53:16;;;;;;;6.82;2.88;;;8.20;18.30;;;;;;5058857;28;20044;-70
2021/10/23 01:55:45;;;;;;;10.10;3.58;;;8.20;19.00;;;;;;5062508;28;20106;-70
2021/10/23 01:58:15;;;;;;;5.18;2.35;;;8.10;19.50;;;;;;5059783;28;20064;-69
2021/10/23 02:00:44;;;;;;;6.38;2.30;;;8.10;20.40;;;;;;5058629;28;20489;-69
2021/10/23 02:03:13;;;;;;;5.60;2.15;;;8.10;20.80;;;;;;5056856;28;20119;-70
2021/10/23 02:05:45;;;;;;;6.18;2.60;;;8.10;21.60;;;;;;5059722;28;20071;-70
2021/10/23 02:08:16;;;;;;;5.57;2.38;;;8.10;22.30;;;;;;5058346;28;20044;-69
2021/10/23 02:10:46;;;;;;;3.17;2.22;;;8.10;22.90;;;;;;5059745;28;20401;-69
2021/10/23 02:13:16;;;;;;;4.22;2.40;;;8.10;24.00;;;;;;5061873;28;20488;-69
2021/10/23 02:15:44;;;;;;;6.35;2.63;;;8.00;24.40;;;;;;5053620;28;20049;-69
2021/10/23 02:18:13;;;;;;;8.52;2.42;;;8.10;25.30;;;;;;5054072;28;20036;-69
2021/10/23 02:20:47;;;;;;;8.38;3.00;;;8.10;24.80;;;;;;5054683;28;20519;-70
2021/10/23 02:23:16;;;;;;;9.43;3.05;;;8.10;25.00;;;;;;5052354;28;20056;-69
2021/10/23 02:25:47;;;;;;;6.05;2.40;;;8.10;24.80;;;;;;5055044;28;20056;-70
2021/10/23 02:28:15;;;;;;;9.63;3.30;;;8.10;25.00;;;;;;5052407;28;20527;-70
2021/10/23 02:30:47;;;;;;;9.77;3.03;;;8.10;24.50;;;;;;5051352;28;20110;-69
2021/10/23 02:33:16;;;;;;;8.82;2.58;;;8.10;24.80;;;;;;5054492;28;20048;-69
2021/10/23 02:35:45;;;;;;;10.38;2.92;;;8.10;25.50;;;;;;5053238;28;20056;-70
2021/10/23 02:38:13;;;;;;;8.75;2.95;;;8.10;24.50;;;;;;5059927;28;20075;-70
2021/10/23 02:40:46;;;;;;;5.57;2.75;;;8.10;24.60;;;;;;5058989;28;20052;-70
2021/10/23 02:43:14;;;;;;;7.82;3.22;;;8.10;24.30;;;;;;5056040;28;20053;-69
2021/10/23 02:45:49;;;;;;;9.02;2.38;;;8.20;23.70;;;;;;5058036;28;20626;-70
2021/10/23 02:48:17;;;;;;;7.03;2.45;;;8.20;23.30;;;;;;5062233;28;20152;-69
2021/10/23 02:50:45;;;;;;;10.45;2.50;;;8.20;23.10;;;;;;5055383;28;20504;-69
2021/10/23 02:53:13;;;;;;;6.28;2.53;;;8.20;22.40;;;;;;5060800;28;20135;-70
2021/10/23 02:55:42;;;;;;;7.90;2.20;;;8.20;22.70;;;;;;5060977;28;20044;-69
2021/10/23 02:58:12;;;;;;;9.55;2.35;;;8.20;22.50;;;;;;5055744;28;20102;-70
2021/10/23 03:00:40;;;;;;;5.75;1.98;;;8.30;22.00;;;;;;5063978;28;20106;-70
2021/10/23 03:03:08;;;;;;;10.43;3.00;;;8.30;21.70;;;;;;5060199;28;20408;-70
2021/10/23 03:05:37;;;;;;;5.82;2.80;;;8.30;21.70;;;;;;5055589;28;20072;-68
2021/10/23 03:08:09;;;;;;;6.78;2.35;;;8.30;21.70;;;;;;5062538;28;20048;-68
2021/10/23 03:10:42;;;;;;;8.40;2.85;;;8.30;21.70;;;;;;5058801;28;20038;-69
2021/10/23 03:13:17;;;;;;;8.48;2.65;;;8.40;21.70;;;;;;5058311;28;20085;-69
2021/10/23 03:15:46;;;;;;;9.75;3.03;;;8.40;20.80;;;;;;5058149;28;20044;-69
2021/10/23 03:18:14;;;;;;;8.30;2.70;;;8.40;21.00;;;;;;5063938;28;20619;-69
2021/10/23 03:20:42;;;;;;;8.05;3.45;;;8.30;21.70;;;;;;5055460;28;20041;-69
2021/10/23 03:23:15;;;;;;;5.82;2.28;;;8.30;21.70;;;;;;5062035;28;20149;-69
2021/10/23 03:25:44;;;;;;;4.85;2.50;;;8.30;22.60;;;;;;5055940;28;20144;-69
2021/10/23 03:28:18;;;;;;;5.07;2.30;;;8.30;22.60;;;;;;5058950;28;20115;-68
2021/10/23 03:30:46;;;;;;;3.70;1.92;;;8.30;23.10;;;;;;5055097;28;20489;-71
2021/10/23 03:33:18;;;;;;;8.43;2.63;;;8.40;22.30;;;;;;5055898;28;20052;-69
2021/10/23 03:35:50;;;;;;;9.95;2.42;;;8.40;21.80;;;;;;5056279;28;20107;-69
2021/10/23 03:38:22;;;;;;;7.28;2.25;;;8.20;22.40;;;;;;5064577;28;20044;-69
2021/10/23 03:40:52;;;;;;;6.63;2.40;;;8.30;21.80;;;;;;5057307;28;20040;-69
2021/10/23 03:43:22;;;;;;;7.85;2.88;;;8.20;21.60;;;;;;5052881;28;20716;-70
2021/10/23 03:45:50;;;;;;;4.05;2.20;;;8.20;21.70;;;;;;5060861;28;20044;-70
2021/10/23 03:48:24;;;;;;;4.22;2.38;;;8.20;21.60;;;;;;5057461;28;20033;-70
2021/10/23 03:50:52;;;;;;;7.18;2.78;;;8.20;21.90;;;;;;5058331;28;20548;-69
2021/10/23 03:53:20;;;;;;;5.65;2.40;;;8.20;22.60;;;;;;5060200;28;20130;-68
2021/10/23 03:55:51;;;;;;;5.72;2.58;;;8.20;21.90;;;;;;5058029;28;20041;-70
2021/10/23 03:58:25;;;;;;;7.28;2.53;;;8.30;22.10;;;;;;5058908;28;20111;-70
2021/10/23 04:00:54;;;;;;;8.48;3.08;;;8.30;22.10;;;;;;5056891;28;20052;-71
2021/10/23 04:03:27;;;;;;;5.57;2.53;;;8.20;21.70;;;;;;5063072;28;20552;-69
2021/10/23 04:05:58;;;;;;;6.75;2.92;;;8.20;21.70;;;;;;5061845;28;20044;-70
2021/10/23 04:08:29;;;;;;;9.65;2.75;;;8.30;21.70;;;;;;5063141;28;20049;-70
2021/10/23 04:10:58;;;;;;;5.63;2.50;;;8.30;21.20;;;;;;5053323;28;20114;-70
2021/10/23 04:13:27;;;;;;;6.53;2.40;;;8.30;20.60;;;;;;5056843;28;20048;-69
2021/10/23 04:15:57;;;;;;;6.63;2.88;;;8.30;21.10;;;;;;5058805;28;20502;-70
2021/10/23 04:18:28;;;;;;;6.38;2.88;;;8.30;20.50;;;;;;5053207;28;20037;-68
2021/10/23 04:20:57;;;;;;;6.82;2.78;;;8.30;21.40;;;;;;5062769;28;20480;-68
2021/10/23 04:23:25;;;;;;;7.32;2.83;;;8.30;20.90;;;;;;5057186;28;20041;-69
2021/10/23 04:25:58;;;;;;;5.53;2.55;;;8.30;20.50;;;;;;5059230;28;20047;-69
2021/10/23 04:28:29;;;;;;;4.35;2.25;;;8.40;21.00;;;;;;5062158;28;20033;-69
2021/10/23 04:30:58;;;;;;;4.80;2.28;;;8.40;20.50;;;;;;5055217;28;20060;-69
2021/10/23 04:33:26;;;;;;;5.82;2.42;;;8.30;19.90;;;;;;5058020;28;20049;-69
2021/10/23 04:35:56;;;;;;;11.10;2.60;;;8.40;20.20;;;;;;5056182;28;20041;-69
2021/10/23 04:38:25;;;;;;;5.00;2.20;;;8.40;19.80;;;;;;5056284;28;20052;-70
2021/10/23 04:40:53;;;;;;;6.45;2.55;;;8.40;19.30;;;;;;5052748;28;20083;-68
2021/10/23 04:43:21;;;;;;;8.20;2.90;;;8.40;19.50;;;;;;5063808;28;20980;-68
2021/10/23 04:45:51;;;;;;;8.68;2.75;;;8.40;19.60;;;;;;5058659;28;20067;-68
2021/10/23 04:48:19;;;;;;;6.38;2.33;;;8.40;19.40;;;;;;5068508;28;20056;-69
2021/10/23 04:50:51;;;;;;;5.57;2.38;;;8.40;19.50;;;;;;5059654;28;20101;-69
2021/10/23 04:53:20;;;;;;;6.10;2.70;;;8.40;19.30;;;;;;5061505;28;20041;-69
2021/10/23 04:55:49;;;;;;;6.57;2.80;;;8.40;19.60;;;;;;5062173;28;20040;-69
2021/10/23 04:58:22;;;;;;;6.07;2.60;;;8.40;20.30;;;;;;5068624;28;20412;-69
2021/10/23 05:00:52;;;;;;;9.82;2.25;;;8.40;19.90;;;;;;5058165;28;20045;-69
2021/10/23 05:03:21;;;;;;;9.57;2.55;;;8.40;20.20;;;;;;5063481;28;20036;-69
2021/10/23 05:05:51;;;;;;;4.90;2.45;;;8.40;20.10;;;;;;5064449;28;20055;-69
2021/10/23 05:08:24;;;;;;;5.55;2.42;;;8.40;20.00;;;;;;5060704;28;20155;-69
2021/10/23 05:10:54;;;;;;;10.88;2.70;;;8.40;20.70;;;;;;5068306;28;20123;-69
2021/10/23 05:13:22;;;;;;;5.25;2.35;;;8.40;20.80;;;;;;5058476;28;20044;-69
2021/10/23 05:15:52;;;;;;;7.40;2.80;;;8.40;20.60;;;;;;5063459;28;20045;-69
2021/10/23 05:18:20;;;;;;;8.02;2.78;;;8.30;21.60;;;;;;5060917;28;20058;-69
2021/10/23 05:20:48;;;;;;;7.78;2.70;;;8.30;21.30;;;;;;5059170;28;20049;-69
2021/10/23 05:23:19;;;;;;;5.88;2.90;;;8.20;21.60;;;;;;5060966;28;20052;-69
2021/10/23 05:25:49;;;;;;;9.80;3.30;;;8.20;22.50;;;;;;5066593;28;20098;-69
2021/10/23 05:28:19;;;;;;;7.32;2.92;;;8.20;23.20;;;;;;5064448;28;20747;-69
2021/10/23 05:30:47;;;;;;;6.28;2.80;;;8.20;23.30;;;;;;5057843;28;20052;-69
2021/10/23 05:33:19;;;;;;;6.55;3.15;;;8.10;23.80;;;;;;5055747;28;20156;-69
2021/10/23 05:35:49;;;;;;;4.15;2.70;;;8.10;24.30;;;;;;5059703;28;20123;-69
2021/10/23 05:38:21;;;;;;;9.80;2.97;;;8.00;24.10;;;;;;5057730;28;20396;-70
2021/10/23 05:40:53;;;;;;;6.13;2.60;;;8.00;24.70;;;;;;5059896;28;20062;-68
2021/10/23 05:43:21;;;;;;;8.88;3.00;;;7.90;24.90;;;;;;5062089;28;20045;-68
2021/10/23 05:45:51;;;;;;;6.10;2.80;;;7.90;24.80;;;;;;5060383;28;20049;-69
2021/10/23 05:48:23;;;;;;;5.20;2.60;;;7.90;25.80;;;;;;5062025;28;20045;-69
2021/10/23 05:50:51;;;;;;;6.40;2.80;;;7.90;26.00;;;;;;5063771;28;20048;-69
2021/10/23 05:53:23;;;;;;;7.82;2.80;;;7.90;25.50;;;;;;5059531;28;20075;-69
2021/10/23 05:55:54;;;;;;;8.57;3.17;;;7.90;25.80;;;;;;5062025;28;20067;-69
2021/10/23 05:58:28;;;;;;;6.28;3.05;;;7.90;25.20;;;;;;5067102;28;20048;-69
2021/10/23 06:01:01;;;;;;;7.53;3.72;;;7.90;24.90;;;;;;5059455;28;20037;-69
2021/10/23 06:03:32;;;;;;;6.95;3.30;;;7.90;24.90;;;;;;5062314;28;20553;-69
2021/10/23 06:06:01;;;;;;;8.10;3.45;;;8.00;25.00;;;;;;5058776;28;20049;-69
2021/10/23 06:08:31;;;;;;;8.27;3.35;;;8.00;25.00;;;;;;5060615;28;20516;-69
2021/10/23 06:11:03;;;;;;;7.63;3.47;;;8.10;24.90;;;;;;5060607;28;20132;-69
2021/10/23 06:13:33;;;;;;;10.15;3.88;;;8.10;25.00;;;;;;5056111;28;20060;-69
2021/10/23 06:16:01;;;;;;;4.35;2.60;;;8.10;25.10;;;;;;5060415;28;20134;-69
2021/10/23 06:18:31;;;;;;;7.72;3.00;;;8.20;25.50;;;;;;5069943;28;20078;-69
2021/10/23 06:21:02;;;;;;;8.10;3.00;;;8.20;25.10;;;;;;5058406;28;20112;-68
2021/10/23 06:23:32;;;;;;;8.75;3.10;;;8.10;24.10;;;;;;5058753;28;20049;-69
2021/10/23 06:26:01;;;;;;;7.00;2.90;;;8.10;23.80;;;;;;5060598;28;20119;-68
2021/10/23 06:28:36;;;;;;;6.25;3.22;;;8.10;23.30;;;;;;5057831;28;20480;-69
2021/10/23 06:31:04;;;;;;;6.28;2.92;;;8.00;22.90;;;;;;5056979;28;20053;-69
2021/10/23 06:33:37;;;;;;;5.72;4.28;;;8.00;23.30;;;;;;5062210;28;20048;-69
2021/10/23 06:36:08;;;;;;;5.20;2.78;;;8.00;23.20;;;;;;5057997;28;20044;-69
2021/10/23 06:38:36;;;;;;;7.40;3.15;;;8.10;22.00;;;;;;5063325;28;20044;-69
2021/10/23 06:41:05;;;;;;;5.88;3.00;;;8.10;21.60;;;;;;5059233;28;20139;-69
2021/10/23 06:43:33;;;;;;;8.60;3.25;;;8.10;21.60;;;;;;5056807;28;20111;-68
2021/10/23 06:46:01;;;;;;;6.57;2.53;;;8.00;20.90;;;;;;5056304;28;20590;-69
2021/10/23 06:48:38;;;;;;;5.75;3.08;;;8.10;20.50;;;;;;5064276;28;20041;-69
2021/10/23 06:51:10;;;;;;;7.50;3.28;;;8.10;19.70;;;;;;5059241;28;20427;-70
2021/10/23 06:53:48;;;;;;;9.20;2.90;;;8.20;19.10;;;;;;5041905;28;20044;-68
2021/10/23 06:56:21;;;;;;;6.63;3.17;;;8.20;18.70;;;;;;5066091;28;20047;-69
2021/10/23 06:58:53;;;;;;;9.07;3.40;;;8.20;19.60;;;;;;5055834;28;20063;-70
2021/10/23 07:01:21;;;;;;;6.22;2.83;;;8.20;18.90;;;;;;5064530;28;20097;-69
2021/10/23 07:03:55;;;;;;;6.45;2.78;;;8.20;19.50;;;;;;5060732;28;20058;-69
2021/10/23 07:06:23;;;;;;;9.82;3.20;;;8.20;18.20;;;;;;5057697;28;20672;-70
2021/10/23 07:08:52;;;;;;;8.90;3.10;;;8.30;18.20;;;;;;5063256;28;20051;-70
2021/10/23 07:11:22;;;;;;;8.25;3.03;;;8.30;17.90;;;;;;5060232;28;20453;-70
2021/10/23 07:13:52;;;;;;;6.15;3.10;;;8.40;18.30;;;;;;5055818;28;20049;-69
2021/10/23 07:16:24;;;;;;;5.82;2.90;;;8.50;17.60;;;;;;5061573;28;20055;-69
2021/10/23 07:18:58;;;;;;;12.45;3.97;;;8.60;17.40;;;;;;5058449;28;20040;-68
2021/10/23 07:21:31;;;;;;;10.60;3.40;;;8.50;16.40;;;;;;5058846;28;20048;-70
2021/10/23 07:23:59;;;;;;;8.60;3.55;;;8.50;16.00;;;;;;5058943;28;20052;-69
2021/10/23 07:26:29;;;;;;;7.32;3.08;;;8.60;16.80;;;;;;5059502;28;20050;-69
2021/10/23 07:29:01;;;;;;;9.18;3.80;;;8.60;16.50;;;;;;5059670;28;20135;-70
2021/10/23 07:31:30;;;;;;;9.50;3.67;;;8.80;15.90;;;;;;5059325;28;20037;-69
2021/10/23 07:34:07;;;;;;;7.55;3.40;;;8.80;15.00;;;;;;5059640;28;20563;-69
2021/10/23 07:36:35;;;;;;;7.60;2.97;;;8.70;14.90;;;;;;5056598;28;20045;-69
2021/10/23 07:39:03;;;;;;;5.97;3.33;;;8.80;15.00;;;;;;5064379;28;20125;-70
2021/10/23 07:41:31;;;;;;;5.90;3.22;;;8.70;14.90;;;;;;5053872;28;20064;-69
2021/10/23 07:44:04;;;;;;;6.47;3.08;;;8.70;14.90;;;;;;5064403;28;20063;-69
2021/10/23 07:46:36;;;;;;;6.70;3.22;;;8.70;15.30;;;;;;5057941;28;20052;-69
2021/10/23 07:49:08;;;;;;;8.90;3.45;;;8.90;15.10;;;;;;5055778;28;20489;-70
2021/10/23 07:51:38;;;;;;;9.90;3.45;;;8.80;15.00;;;;;;5063081;28;20107;-70
2021/10/23 07:54:08;;;;;;;8.45;3.35;;;9.00;15.10;;;;;;5058282;28;20079;-68
2021/10/23 07:56:37;;;;;;;6.30;3.05;;;9.10;13.20;;;;;;5058015;28;20127;-69
2021/10/23 07:59:08;;;;;;;9.30;3.38;;;9.20;13.20;;;;;;5061686;28;20496;-69
2021/10/23 08:01:37;;;;;;;5.97;3.65;;;9.30;12.60;;;;;;5052537;28;20066;-70
2021/10/23 08:04:11;;;;;;;7.15;3.67;;;9.40;12.20;;;;;;5061604;28;20072;-69
2021/10/23 08:06:44;;;;;;;5.40;3.45;;;9.40;11.80;;;;;;5061861;28;20064;-69
2021/10/23 08:09:12;;;;;;;11.13;4.00;;;9.50;11.20;;;;;;5058870;28;20222;-69
2021/10/23 08:11:42;;;;;;;6.75;3.50;;;9.60;10.40;;;;;;5060555;28;20507;-69
2021/10/23 08:14:10;;;;;;;10.82;3.60;;;9.70;10.00;;;;;;5058893;28;20509;-69
2021/10/23 08:16:39;;;;;;;8.00;3.00;;;9.80;9.10;;;;;;5059372;28;20039;-70
2021/10/23 08:19:07;;;;;;;8.77;3.20;;;9.90;9.20;;;;;;5070758;28;20504;-68
2021/10/23 08:21:37;;;;;;;9.90;3.50;;;9.80;8.10;;;;;;5061076;28;20090;-69
2021/10/23 08:24:05;;;;;;;6.97;2.80;;;10.10;7.20;;;;;;5057982;28;20088;-68
2021/10/23 08:26:38;;;;;;;7.05;3.08;;;10.20;6.40;;;;;;5062274;28;20130;-69
2021/10/23 08:29:11;;;;;;;6.82;2.88;;;10.30;5.30;;;;;;5062482;28;20134;-69
2021/10/23 08:31:39;;;;;;;7.78;3.38;;;10.40;4.60;;;;;;5060319;28;20480;-69
2021/10/23 08:34:09;;;;;;;7.18;3.35;;;10.50;4.40;;;;;;5073711;28;20075;-69
2021/10/23 08:36:43;;;;;;;6.17;3.13;;;10.70;3.00;;;;;;5055633;28;20056;-70
2021/10/23 08:39:16;;;;;;;10.48;3.17;;;10.80;2.90;;;;;;5059490;28;20048;-69
2021/10/23 08:41:58;;;;;;;9.93;3.67;;;10.70;2.20;;;;;;5061696;28;20056;-69
2021/10/23 08:44:28;;;;;;;5.75;3.30;;;11.10;1.40;;;;;;5063472;28;20040;-69
2021/10/23 08:47:02;;;;;;;5.55;3.15;;;11.20;1.00;;;;;;5057071;28;20037;-69
2021/10/23 08:49:32;;;;;;;10.57;4.30;;;11.30;1.00;;;;;;5065538;28;20114;-69
2021/10/23 08:52:04;;;;;;;8.40;3.17;;;11.20;1.00;;;;;;5055103;28;20133;-68
2021/10/23 08:54:34;;;;;;;11.05;3.30;;;11.10;1.00;;;;;;5061623;28;20869;-68
2021/10/23 08:57:07;;;;;;;6.93;3.42;;;10.90;1.00;;;;;;5065679;28;20127;-69
2021/10/23 08:59:35;;;;;;;9.50;3.60;;;10.60;1.30;;;;;;5061532;28;20076;-69
2021/10/23 09:02:10;;;;;;;6.78;3.33;;;10.60;2.20;;;;;;5059328;28;20055;-68
2021/10/23 09:04:38;;;;;;;11.05;3.50;;;10.40;3.30;;;;;;5059082;28;20044;-69
2021/10/23 09:07:11;;;;;;;9.73;4.07;;;10.30;3.30;;;;;;5058706;28;20520;-69
2021/10/23 09:09:45;;;;;;;6.95;3.70;;;10.20;4.20;;;;;;5064969;28;20092;-68
2021/10/23 09:12:24;;;;;;;6.57;3.80;;;10.20;4.30;;;;;;5059614;28;20059;-69
2021/10/23 09:15:01;;;;;;;5.47;3.50;;;9.90;6.20;;;;;;5060466;28;20120;-68
2021/10/23 09:17:33;;;;;;;7.60;3.72;;;10.00;6.50;;;;;;5054750;28;20511;-68
2021/10/23 09:20:07;;;;;;;7.00;3.92;;;10.00;6.10;;;;;;5057621;28;20110;-69
2021/10/23 09:22:50;;;;;;;10.65;4.25;;;10.00;5.90;;;;;;5056874;28;20090;-73
2021/10/23 09:25:27;;;;;;;6.40;4.07;;;10.10;5.70;;;;;;5061258;28;20101;-70
2021/10/23 09:27:59;;;;;;;12.23;4.47;;;10.10;5.60;;;;;;5063356;28;20127;-69
2021/10/23 09:30:33;;;;;;;9.18;4.40;;;10.10;6.40;;;;;;5055807;28;20064;-69
2021/10/23 09:33:06;;;;;;;9.00;4.68;;;10.10;6.90;;;;;;5064178;28;20098;-69
2021/10/23 09:35:39;;;;;;;10.13;4.82;;;10.10;6.20;;;;;;5055682;28;20067;-69
2021/10/23 09:38:13;;;;;;;7.68;4.65;;;10.20;6.50;;;;;;5055833;28;20867;-69
2021/10/23 09:40:44;;;;;;;10.88;4.07;;;10.50;4.70;;;;;;5055192;28;20048;-69
2021/10/23 09:43:16;;;;;;;7.45;4.28;;;10.90;3.30;;;;;;5055925;28;20047;-69
2021/10/23 09:46:07;;;;;;;8.07;4.18;;;11.10;3.70;;;;;;5054502;28;20744;-70
2021/10/23 09:48:36;;;;;;;10.13;3.80;;;11.60;1.30;;;;;;5061732;28;20393;-69
2021/10/23 09:51:19;;;;;;;8.20;4.03;;;11.80;1.00;;;;;;5061689;28;20127;-69
2021/10/23 09:53:54;;;;;;;6.90;4.00;;;11.40;1.00;;;;;;5052696;28;20874;-69
2021/10/23 09:56:24;;;;;;;5.95;3.55;;;11.80;1.00;;;;;;5057401;28;20087;-70
2021/10/23 09:58:57;;;;;;;5.85;3.45;;;12.00;1.00;;;;;;5061865;28;20574;-70
2021/10/23 10:01:29;;;;;;;6.50;3.33;;;11.30;1.00;;;;;;5055488;28;20423;-69
2021/10/23 10:04:04;;;;;;;8.75;3.75;;;11.70;1.00;;;;;;5060708;28;20474;-69
2021/10/23 10:06:38;;;;;;;8.90;2.85;;;11.90;1.00;;;;;;5057859;28;20049;-69
2021/10/23 10:09:10;;;;;;;6.55;3.53;;;11.80;1.00;;;;;;5060617;28;20037;-69
2021/10/23 10:11:40;;;;;;;6.85;3.40;;;11.20;1.00;;;;;;5061161;28;20067;-69
2021/10/23 10:14:10;;;;;;;9.30;4.20;;;10.90;1.00;;;;;;5057188;28;20094;-69
2021/10/23 10:16:45;;;;;;;8.73;3.47;;;10.70;1.00;;;;;;5064213;28;20410;-68
2021/10/23 10:19:14;;;;;;;7.68;3.72;;;10.60;1.30;;;;;;5062839;28;20056;-69
2021/10/23 10:21:43;;;;;;;7.50;3.92;;;10.60;1.20;;;;;;5057938;28;20041;-69
2021/10/23 10:24:18;;;;;;;6.95;3.65;;;10.40;2.10;;;;;;5061388;28;20056;-69
2021/10/23 10:27:00;;;;;;;8.90;3.88;;;10.30;2.50;;;;;;5062725;28;20098;-69
2021/10/23 10:29:40;;;;;;;10.55;4.57;;;10.20;2.80;;;;;;5057994;28;20056;-69
2021/10/23 10:32:14;;;;;;;6.97;4.10;;;10.30;1.50;;;;;;5061759;28;20037;-69
2021/10/23 10:40:57;;;;;;;8.55;3.80;;;11.10;1.00;;;;;;5034821;28;20052;-70
2021/10/23 10:43:28;;;;;;;6.13;3.50;;;11.30;1.00;;;;;;5056441;28;20613;-69
2021/10/23 10:46:02;;;;;;;10.20;4.00;;;11.50;1.00;;;;;;5063140;28;20048;-69
2021/10/23 10:48:40;;;;;;;7.07;3.00;;;11.70;1.00;;;;;;5056350;28;20045;-69
2021/10/23 10:51:23;;;;;;;8.95;3.53;;;12.10;1.00;;;;;;5059781;28;20055;-68
2021/10/23 10:54:09;;;;;;;4.80;2.88;;;12.40;1.00;;;;;;5059001;28;20045;-70
2021/10/23 10:56:49;;;;;;;8.13;3.92;;;12.50;1.00;;;;;;5055073;28;20060;-69
2021/10/23 10:59:52;;;;;;;8.10;2.83;;;12.50;1.00;;;;;;5059712;28;20098;-69
2021/10/23 11:02:36;;;;;;;5.55;3.15;;;12.40;1.00;;;;;;5057173;28;20567;-70
2021/10/23 11:05:11;;;;;;;6.13;2.72;;;12.70;1.00;;;;;;5069006;28;20123;-70
2021/10/23 11:08:09;;;;;;;5.82;3.05;;;12.60;1.00;;;;;;5056557;28;20101;-68
2021/10/23 11:10:57;;;;;;;10.05;3.10;;;12.50;1.00;;;;;;5061229;28;20060;-68
2021/10/23 11:13:28;;;;;;;5.28;3.03;;;12.00;1.00;;;;;;5058685;28;20406;-68
2021/10/23 11:15:59;;;;;;;5.10;2.70;;;11.70;1.00;;;;;;5055666;28;20047;-69
2021/10/23 11:18:27;;;;;;;7.38;3.25;;;11.50;1.00;;;;;;5055428;28;20447;-69
2021/10/23 11:20:56;;;;;;;6.03;3.05;;;11.40;1.00;;;;;;5063523;28;20292;-69
2021/10/23 11:23:25;;;;;;;5.80;3.55;;;11.30;1.00;;;;;;5055280;28;20499;-69
2021/10/23 11:25:54;;;;;;;5.13;3.60;;;11.30;1.00;;;;;;5060983;28;20141;-70
2021/10/23 11:28:28;;;;;;;4.65;2.70;;;11.30;1.00;;;;;;5058958;28;20115;-68
2021/10/23 11:30:57;;;;;;;7.05;2.17;;;11.40;1.00;;;;;;5055805;28;20047;-69
2021/10/23 11:33:27;;;;;;;5.82;2.30;;;11.40;1.00;;;;;;5059179;28;20457;-69
2021/10/23 11:35:55;;;;;;;6.03;2.97;;;11.20;1.00;;;;;;5059468;28;20474;-70
2021/10/23 11:38:25;;;;;;;5.03;2.55;;;11.20;1.00;;;;;;5061773;28;20041;-68
2021/10/23 11:40:55;;;;;;;6.88;2.88;;;11.20;1.00;;;;;;5061748;28;20049;-69
2021/10/23 11:43:24;;;;;;;5.07;2.65;;;11.30;1.00;;;;;;5053938;28;20591;-69
2021/10/23 11:45:54;;;;;;;5.18;2.72;;;11.20;1.00;;;;;;5044203;28;20140;-70
2021/10/23 11:48:23;;;;;;;7.47;3.22;;;11.30;1.00;;;;;;5048367;28;20115;-70
2021/10/23 11:50:56;;;;;;;5.38;3.55;;;11.30;1.00;;;;;;5053088;28;20911;-70
2021/10/23 11:53:29;;;;;;;6.30;3.50;;;11.40;1.00;;;;;;5053134;28;20063;-69
2021/10/23 11:56:00;;;;;;;5.45;3.33;;;11.10;1.00;;;;;;5053059;28;20467;-67
2021/10/23 11:58:35;;;;;;;3.50;2.50;;;11.30;1.00;;;;;;5051485;28;20102;-69
2021/10/23 12:01:17;;;;;;;7.65;2.33;;;11.40;1.00;;;;;;5054381;28;20580;-69
2021/10/23 12:03:57;;;;;;;5.85;3.13;;;11.50;1.00;;;;;;5052093;28;20047;-69
2021/10/23 12:06:27;;;;;;;4.05;2.00;;;11.50;1.00;;;;;;5051203;28;20045;-69
2021/10/23 12:08:57;;;;;;;4.70;2.13;;;11.60;1.00;;;;;;5050881;28;20110;-69
2021/10/23 12:11:29;;;;;;;5.78;2.65;;;11.70;1.00;;;;;;5050518;28;20547;-69
2021/10/23 12:14:03;;;;;;;6.53;2.50;;;11.70;1.00;;;;;;5049900;28;20060;-69
2021/10/23 12:16:44;;;;;;;7.28;2.55;;;11.80;1.00;;;;;;5049453;28;20512;-68
2021/10/23 12:19:15;;;;;;;6.20;2.63;;;11.80;1.00;;;;;;5051094;28;21604;-69
2021/10/23 12:21:52;;;;;;;4.38;2.42;;;12.00;1.00;;;;;;5053137;28;20106;-69
2021/10/23 12:24:23;;;;;;;4.88;2.80;;;12.20;1.00;;;;;;5052283;28;20037;-70
2021/10/23 12:27:23;;;;;;;6.22;2.53;;;11.90;1.00;;;;;;5049803;28;20168;-69
2021/10/23 12:29:55;;;;;;;6.10;2.78;;;12.10;1.00;;;;;;5047431;28;20083;-69
2021/10/23 12:32:38;;;;;;;6.07;2.00;;;12.60;1.00;;;;;;5050541;28;20470;-69
2021/10/23 12:35:11;;;;;;;4.72;1.73;;;12.50;1.00;;;;;;5048459;28;20527;-69
2021/10/23 12:37:50;;;;;;;3.10;1.73;;;12.60;1.00;;;;;;5053114;28;20072;-69
2021/10/23 12:40:30;;;;;;;3.20;1.83;;;12.60;1.00;;;;;;5049148;28;20102;-69
2021/10/23 12:43:04;;;;;;;3.75;1.98;;;12.50;1.00;;;;;;5049620;28;20504;-69
2021/10/23 12:45:38;;;;;;;5.85;2.63;;;12.50;1.00;;;;;;5050746;28;20048;-68
2021/10/23 12:48:10;;;;;;;4.47;2.15;;;12.50;1.00;;;;;;5052137;28;20075;-68
2021/10/23 12:50:41;;;;;;;3.65;1.80;;;12.30;1.00;;;;;;5050416;28;20048;-69
2021/10/23 12:53:13;;;;;;;;;;;12.20;1.00;;;;;;5055239;28;20068;-68
2021/10/23 12:55:41;;;;;;;2.60;1.73;;;12.20;1.00;;;;;;5052813;28;20018;-69
2021/10/23 12:58:12;;;;;;;4.97;1.45;;;12.10;1.00;;;;;;5048716;28;20107;-69
2021/10/23 13:00:46;;;;;;;3.92;1.45;;;12.10;1.00;;;;;;5046821;28;20040;-69
2021/10/23 13:03:21;;;;;;;5.88;1.20;;;12.20;1.00;;;;;;5055148;28;20499;-67
2021/10/23 13:05:49;;;;;;;4.93;1.50;;;12.10;1.00;;;;;;5047302;28;20357;-68
2021/10/23 13:08:17;;;;;;;4.32;1.15;;;11.90;1.00;;;;;;5056680;28;20055;-70
2021/10/23 13:10:47;;;;;;;3.45;1.30;;;11.90;1.00;;;;;;5054515;28;20227;-69
2021/10/23 13:13:17;;;;;;;4.05;1.85;;;11.90;1.00;;;;;;5050452;28;20158;-69
2021/10/23 13:15:45;;;;;;;2.67;1.40;;;11.90;1.00;;;;;;5053189;28;20173;-68
2021/10/23 13:18:16;;;;;;;6.20;1.55;;;11.90;1.00;;;;;;5053422;28;20067;-68
2021/10/23 13:20:50;;;;;;;5.35;2.70;;;11.80;1.00;;;;;;5054784;28;20079;-68
2021/10/23 13:23:19;;;;;;;2.15;1.40;;;11.90;1.00;;;;;;5053450;28;20132;-69
2021/10/23 13:25:48;;;;;;;4.63;1.73;;;11.80;1.00;;;;;;5052354;28;20093;-69